Leander, Louisiana
Current Conditions -  °F | °C
As of 9:54 PM on Friday 19 Dec 2014 (Local Time) from KBKB Reporting Station
Haze Haze  
Wind Chill: 47°   Ceiling: 200
Heat Index: 49°   Visibility: 4mi
Dew Point: 46°   Wind: 6mph
Humidity: 90%   Direction: NA
Pressure: 30.12"   Gusts: NA
Location:  31.0802°N, 92.7964°W
Report Text: KBKB 200354Z AUTO VRB05KT 4SM BR OVC002 09/08 A3012 RMK AO2 SLP229 T00940078 $
Loading
Personal Weather Stations






























Interactive Weather Map New forecast layout! Learn more

10-Day Weather Forecast

Advertisements
Track Severe Weather on mobile